Time;durP1;ratioP1;P1;durP2;ratioP2;P2;SDS_P1;SDS_P2;PMS_P1;PMS_P2;Temp;Humidity;BMP_temperature;BMP_pressure;BME280_temperature;BME280_humidity;BME280_pressure;Samples;Min_cycle;Max_cycle;Signal;HPM_P1;HPM_P2
2023/09/22 00:01:17;;;;;;;1.50;1.00;;;;;;;16.88;99.79;99132.25;5051346;28;20233;-78
2023/09/22 00:03:44;;;;;;;1.20;1.10;;;;;;;16.83;100.00;99129.28;5051620;28;20201;-80
2023/09/22 00:06:10;;;;;;;1.23;0.87;;;;;;;16.81;99.48;99118.69;5046586;28;20209;-79
2023/09/22 00:08:36;;;;;;;1.90;0.97;;;;;;;16.79;99.64;99111.81;5052707;28;20209;-79
2023/09/22 00:11:07;;;;;;;1.40;0.87;;;;;;;16.78;99.13;99108.28;5050161;28;20232;-79
2023/09/22 00:13:34;;;;;;;2.40;0.93;;;;;;;16.73;98.38;99112.50;5053019;28;20202;-78
2023/09/22 00:16:01;;;;;;;1.43;1.30;;;;;;;16.67;98.42;99112.16;5047796;28;20820;-80
2023/09/22 00:18:27;;;;;;;1.20;0.70;;;;;;;16.65;98.44;99108.84;5051138;28;20688;-79
2023/09/22 00:20:54;;;;;;;1.57;1.07;;;;;;;16.65;97.79;99099.94;5046495;28;20613;-80
2023/09/22 00:23:21;;;;;;;1.73;0.77;;;;;;;16.62;97.25;99103.78;5049272;28;20213;-79
2023/09/22 00:25:47;;;;;;;1.77;0.80;;;;;;;16.57;97.07;99114.19;5050331;28;20204;-79
2023/09/22 00:28:15;;;;;;;1.30;0.80;;;;;;;16.53;97.06;99115.56;5051869;28;20205;-79
2023/09/22 00:30:41;;;;;;;2.07;0.70;;;;;;;16.47;97.50;99110.03;5045203;28;20232;-79
2023/09/22 00:33:08;;;;;;;1.80;0.97;;;;;;;16.44;97.19;99108.53;5050574;28;20218;-79
2023/09/22 00:35:34;;;;;;;1.20;0.80;;;;;;;16.40;97.46;99100.97;5051763;28;20575;-80
2023/09/22 00:38:01;;;;;;;0.60;0.60;;;;;;;16.36;97.61;99097.78;5051727;28;20741;-79
2023/09/22 00:40:27;;;;;;;2.03;0.70;;;;;;;16.33;97.68;99100.81;5047277;28;20232;-78
2023/09/22 00:43:06;;;;;;;0.80;0.70;;;;;;;16.33;97.56;99114.25;5052186;28;20309;-78
2023/09/22 00:45:36;;;;;;;1.00;0.80;;;;;;;16.33;96.95;99108.88;5052833;28;20207;-78
2023/09/22 00:48:02;;;;;;;0.83;0.67;;;;;;;16.31;96.63;99113.56;5050698;28;20200;-78
2023/09/22 00:50:29;;;;;;;1.33;0.87;;;;;;;16.27;97.07;99112.28;5049628;28;20222;-78
2023/09/22 00:52:55;;;;;;;0.90;0.70;;;;;;;16.24;97.83;99109.91;5049490;28;21477;-79
2023/09/22 00:55:22;;;;;;;1.40;0.87;;;;;;;16.19;97.91;99110.41;5045522;28;20209;-79
2023/09/22 00:57:48;;;;;;;1.50;0.77;;;;;;;16.16;97.25;99104.53;5050361;28;20208;-78
2023/09/22 01:00:16;;;;;;;0.70;0.50;;;;;;;16.14;97.41;99111.94;5049503;28;20704;-78
2023/09/22 01:02:44;;;;;;;1.20;0.70;;;;;;;16.09;97.38;99120.53;5049802;28;20200;-78
2023/09/22 01:05:11;;;;;;;1.10;0.80;;;;;;;16.04;97.66;99122.03;5049665;28;20652;-79
2023/09/22 01:07:38;;;;;;;0.70;0.60;;;;;;;16.03;96.98;99136.47;5050554;28;20209;-79
2023/09/22 01:10:09;;;;;;;1.30;0.80;;;;;;;16.03;96.13;99133.78;5050043;28;20231;-79
2023/09/22 01:12:36;;;;;;;0.97;0.60;;;;;;;16.00;95.72;99134.09;5047513;28;20727;-79
2023/09/22 01:15:02;;;;;;;0.97;0.63;;;;;;;15.93;95.62;99129.44;5047180;28;20209;-80
2023/09/22 01:17:28;;;;;;;0.60;0.60;;;;;;;15.93;95.54;99140.16;5051268;28;20211;-79
2023/09/22 01:19:58;;;;;;;1.20;0.60;;;;;;;15.95;94.55;99130.06;5045158;28;20303;-80
2023/09/22 01:22:26;;;;;;;0.73;0.60;;;;;;;15.93;94.70;99128.59;5053009;28;20215;-80
2023/09/22 01:24:52;;;;;;;2.30;0.73;;;;;;;15.92;94.62;99126.91;5051773;28;20214;-80
2023/09/22 01:27:19;;;;;;;0.90;0.70;;;;;;;15.90;94.73;99131.59;5053260;28;20203;-80
2023/09/22 01:29:45;;;;;;;1.13;0.60;;;;;;;15.88;94.72;99128.25;5046618;28;20227;-80
2023/09/22 01:32:11;;;;;;;0.67;0.50;;;;;;;15.86;94.64;99136.47;5047144;28;20292;-80
2023/09/22 01:34:38;;;;;;;0.70;0.60;;;;;;;15.84;94.52;99135.78;5052892;28;20208;-80
2023/09/22 01:37:07;;;;;;;1.50;0.60;;;;;;;15.86;94.13;99135.63;5051698;28;20207;-80
2023/09/22 01:39:35;;;;;;;2.77;0.77;;;;;;;15.85;93.79;99144.69;5052477;28;20251;-81
2023/09/22 01:42:01;;;;;;;1.37;0.50;;;;;;;15.85;93.52;99150.88;5050684;28;20204;-80
2023/09/22 01:44:28;;;;;;;0.70;0.70;;;;;;;15.85;92.97;99155.41;5053647;28;20227;-81
2023/09/22 01:46:54;;;;;;;0.67;0.67;;;;;;;15.83;93.14;99152.91;5048583;28;20250;-80
2023/09/22 01:49:21;;;;;;;0.93;0.60;;;;;;;15.82;93.73;99150.38;5049737;28;20225;-80
2023/09/22 01:51:47;;;;;;;1.20;0.53;;;;;;;15.83;94.10;99152.91;5052063;28;21039;-80
2023/09/22 01:54:14;;;;;;;0.63;0.50;;;;;;;15.83;93.52;99155.59;5047639;28;20225;-80
2023/09/22 01:56:41;;;;;;;1.33;0.90;;;;;;;15.83;94.25;99160.94;5045966;28;20210;-80
2023/09/22 01:59:08;;;;;;;1.27;0.70;;;;;;;15.82;93.86;99171.84;5052463;28;20235;-79
2023/09/22 02:01:34;;;;;;;0.73;0.60;;;;;;;15.80;93.56;99174.69;5047315;28;20204;-81
2023/09/22 02:04:01;;;;;;;1.40;1.00;;;;;;;15.77;93.91;99179.56;5051887;28;20699;-80
2023/09/22 02:06:27;;;;;;;1.43;0.80;;;;;;;15.76;93.51;99178.75;5050976;28;21486;-80
2023/09/22 02:08:54;;;;;;;1.10;0.70;;;;;;;15.74;94.03;99188.81;5052780;28;20226;-79
2023/09/22 02:11:21;;;;;;;1.43;0.60;;;;;;;15.74;93.83;99180.75;5053623;28;20206;-80
2023/09/22 02:13:49;;;;;;;1.13;0.70;;;;;;;15.74;93.40;99175.38;5050864;28;20205;-80
2023/09/22 02:16:16;;;;;;;0.70;0.60;;;;;;;15.72;93.87;99180.06;5050698;28;20203;-80
2023/09/22 02:18:43;;;;;;;1.13;0.50;;;;;;;15.69;93.99;99177.72;5051704;28;20238;-80
2023/09/22 02:21:10;;;;;;;0.90;0.50;;;;;;;15.71;94.40;99174.88;5052752;28;20241;-80
2023/09/22 02:23:37;;;;;;;1.40;0.70;;;;;;;15.70;94.78;99179.41;5045643;28;20208;-80
2023/09/22 02:26:07;;;;;;;1.37;0.70;;;;;;;15.67;94.97;99189.63;5051016;28;20209;-81
2023/09/22 02:28:34;;;;;;;1.03;0.80;;;;;;;15.63;94.98;99184.56;5048069;28;20204;-80
2023/09/22 02:31:02;;;;;;;1.90;0.90;;;;;;;15.59;94.71;99190.44;5048030;28;20239;-80
2023/09/22 02:33:29;;;;;;;1.07;0.80;;;;;;;15.60;94.76;99189.44;5052558;28;20209;-80
2023/09/22 02:35:55;;;;;;;1.43;0.50;;;;;;;15.59;94.71;99203.84;5047405;28;20220;-79
2023/09/22 02:38:21;;;;;;;2.40;0.70;;;;;;;15.56;94.39;99198.84;5052164;28;20200;-79
2023/09/22 02:40:48;;;;;;;1.40;0.70;;;;;;;15.53;94.65;99193.75;5051202;28;20230;-80
2023/09/22 02:43:15;;;;;;;0.87;0.60;;;;;;;15.49;94.71;99198.59;5051634;28;20219;-80
2023/09/22 02:45:41;;;;;;;0.83;0.57;;;;;;;15.47;95.22;99202.44;5042601;28;20663;-80
2023/09/22 02:48:09;;;;;;;1.90;0.80;;;;;;;15.45;95.59;99207.13;5047281;28;20218;-80
2023/09/22 02:50:35;;;;;;;0.60;0.50;;;;;;;15.44;95.36;99205.47;5051068;28;20225;-80
2023/09/22 02:53:04;;;;;;;2.10;0.77;;;;;;;15.43;95.70;99206.47;5051979;28;20213;-81
2023/09/22 02:55:30;;;;;;;1.27;0.50;;;;;;;15.42;95.60;99200.25;5044943;28;20279;-81
2023/09/22 02:57:57;;;;;;;1.33;0.50;;;;;;;15.42;95.64;99212.81;5051416;28;20594;-81
2023/09/22 03:00:23;;;;;;;1.00;0.60;;;;;;;15.39;96.29;99200.59;5045422;28;20228;-81
2023/09/22 03:02:50;;;;;;;1.30;0.57;;;;;;;15.38;96.69;99209.66;5047689;28;20210;-81
2023/09/22 03:05:18;;;;;;;1.10;0.80;;;;;;;15.39;96.54;99205.97;5054894;28;20326;-81
2023/09/22 03:07:45;;;;;;;1.13;0.73;;;;;;;15.37;96.43;99207.13;5050377;28;20231;-80
2023/09/22 03:10:11;;;;;;;0.90;0.47;;;;;;;15.36;96.29;99200.91;5054889;28;20227;-80
2023/09/22 03:12:38;;;;;;;0.67;0.57;;;;;;;15.38;96.80;99201.59;5050648;28;20422;-80
2023/09/22 03:15:08;;;;;;;0.57;0.50;;;;;;;15.36;96.59;99195.56;5051479;28;20212;-81
2023/09/22 03:17:34;;;;;;;1.20;0.60;;;;;;;15.38;95.67;99195.41;5051786;28;20211;-80
2023/09/22 03:20:00;;;;;;;1.57;0.70;;;;;;;15.35;96.28;99198.41;5047829;28;20235;-80
2023/09/22 03:22:28;;;;;;;1.40;0.83;;;;;;;15.32;96.47;99204.09;5046694;28;20206;-80
2023/09/22 03:24:55;;;;;;;0.67;0.60;;;;;;;15.34;96.67;99210.97;5049943;28;20211;-80
2023/09/22 03:27:21;;;;;;;1.40;0.60;;;;;;;15.35;96.51;99209.13;5049241;28;20206;-80
2023/09/22 03:29:48;;;;;;;1.37;0.70;;;;;;;15.32;96.47;99206.78;5054928;28;20837;-81
2023/09/22 03:32:18;;;;;;;1.17;0.60;;;;;;;15.33;96.59;99203.09;5053226;28;20692;-81
2023/09/22 03:34:46;;;;;;;1.33;0.70;;;;;;;15.30;96.37;99193.50;5047353;28;20260;-81
2023/09/22 03:37:12;;;;;;;1.90;0.93;;;;;;;15.30;96.28;99188.16;5048162;28;20297;-81
2023/09/22 03:39:40;;;;;;;1.27;0.77;;;;;;;15.28;96.37;99193.69;5053304;28;20231;-79
2023/09/22 03:42:07;;;;;;;1.50;0.70;;;;;;;15.30;96.32;99193.50;5050426;28;20203;-80
2023/09/22 03:44:34;;;;;;;2.60;0.50;;;;;;;15.30;96.50;99182.78;5049920;28;20209;-80
2023/09/22 03:47:00;;;;;;;0.70;0.60;;;;;;;15.31;96.71;99205.09;5053577;28;20213;-80
2023/09/22 03:49:27;;;;;;;0.77;0.73;;;;;;;15.31;96.87;99205.09;5054491;28;20227;-80
2023/09/22 03:51:54;;;;;;;1.20;0.70;;;;;;;15.33;96.79;99200.41;5052800;28;20256;-80
2023/09/22 03:54:20;;;;;;;0.93;0.70;;;;;;;15.28;96.49;99196.34;5050634;28;20214;-80
2023/09/22 03:56:48;;;;;;;0.60;0.60;;;;;;;15.26;96.42;99197.50;5054539;28;20190;-80
2023/09/22 03:59:14;;;;;;;2.60;0.70;;;;;;;15.24;96.78;99203.03;5051323;28;20596;-80
2023/09/22 04:01:42;;;;;;;1.00;0.70;;;;;;;15.25;96.60;99202.03;5047676;28;20210;-80
2023/09/22 04:04:08;;;;;;;1.67;0.70;;;;;;;15.25;96.75;99198.53;5050538;28;20256;-80
2023/09/22 04:06:35;;;;;;;1.67;0.60;;;;;;;15.24;96.28;99200.34;5052598;28;20204;-81
2023/09/22 04:09:07;;;;;;;2.03;0.70;;;;;;;15.22;95.97;99188.13;5051219;28;20211;-80
2023/09/22 04:11:33;;;;;;;0.50;0.40;;;;;;;15.17;96.28;99191.31;5049781;28;20206;-80
2023/09/22 04:14:01;;;;;;;1.17;0.87;;;;;;;15.15;95.90;99195.13;5052071;28;20214;-80
2023/09/22 04:16:28;;;;;;;1.10;0.77;;;;;;;15.14;96.04;99190.78;5053284;28;20199;-80
2023/09/22 04:18:55;;;;;;;2.30;0.90;;;;;;;15.14;96.25;99194.31;5052652;28;20210;-81
2023/09/22 04:21:22;;;;;;;0.70;0.70;;;;;;;15.12;96.03;99206.19;5051908;28;20623;-80
2023/09/22 04:23:51;;;;;;;1.13;0.70;;;;;;;15.09;96.17;99207.34;5050261;28;20672;-80
2023/09/22 04:26:18;;;;;;;1.37;0.80;;;;;;;15.10;96.37;99216.22;5054197;28;20633;-80
2023/09/22 04:28:45;;;;;;;1.20;0.90;;;;;;;15.08;96.34;99218.22;5048657;28;20596;-80
2023/09/22 04:31:13;;;;;;;1.60;0.80;;;;;;;15.04;96.72;99217.72;5053089;28;20210;-80
2023/09/22 04:33:40;;;;;;;1.60;0.70;;;;;;;15.02;97.08;99206.31;5053416;28;20698;-80
2023/09/22 04:36:10;;;;;;;1.67;1.00;;;;;;;15.01;97.13;99193.06;5056600;28;20207;-80
2023/09/22 04:38:38;;;;;;;0.80;0.73;;;;;;;14.98;96.82;99207.63;5053641;28;20207;-81
2023/09/22 04:41:06;;;;;;;2.00;0.90;;;;;;;14.94;96.66;99223.19;5054068;28;20288;-80
2023/09/22 04:43:35;;;;;;;1.30;0.60;;;;;;;14.94;96.84;99236.59;5047696;28;20270;-80
2023/09/22 04:46:02;;;;;;;1.37;1.00;;;;;;;14.93;96.76;99253.69;5058178;28;20213;-80
2023/09/22 04:48:30;;;;;;;1.83;0.80;;;;;;;14.92;97.50;99260.03;5048983;28;20219;-81
2023/09/22 04:50:57;;;;;;;2.10;1.27;;;;;;;14.89;97.09;99260.34;5054909;28;20355;-80
2023/09/22 04:53:24;;;;;;;1.40;0.80;;;;;;;14.91;97.33;99270.91;5054058;28;20212;-80
2023/09/22 04:56:00;;;;;;;1.80;1.00;;;;;;;14.93;96.56;99269.75;5052936;28;20205;-80
2023/09/22 04:58:27;;;;;;;0.97;0.67;;;;;;;14.93;96.66;99268.91;5049687;28;20206;-80
2023/09/22 05:00:55;;;;;;;1.97;0.70;;;;;;;14.94;95.89;99265.25;5053903;28;20226;-80
2023/09/22 05:03:22;;;;;;;2.30;0.90;;;;;;;14.93;96.07;99244.78;5053676;28;20196;-81
2023/09/22 05:05:50;;;;;;;1.77;0.87;;;;;;;14.89;95.79;99214.78;5049838;28;20206;-80
2023/09/22 05:08:17;;;;;;;3.47;0.90;;;;;;;14.86;96.10;99216.97;5043087;28;20292;-80
2023/09/22 05:10:47;;;;;;;2.77;1.27;;;;;;;14.84;95.69;99229.69;5053727;28;20221;-80
2023/09/22 05:13:15;;;;;;;1.50;0.90;;;;;;;14.85;95.11;99217.97;5043945;28;20221;-80
2023/09/22 05:15:43;;;;;;;1.80;0.80;;;;;;;14.83;94.39;99231.53;5048406;28;20274;-80
2023/09/22 05:18:12;;;;;;;1.40;1.03;;;;;;;14.84;93.85;99232.38;5046782;28;20229;-81
2023/09/22 05:20:39;;;;;;;1.50;1.03;;;;;;;14.85;93.22;99253.66;5053124;28;20229;-80
2023/09/22 05:23:07;;;;;;;0.90;0.90;;;;;;;14.87;92.96;99261.50;5050270;28;20209;-79
2023/09/22 05:25:39;;;;;;;1.50;1.10;;;;;;;14.86;93.13;99273.25;5044840;28;20205;-81
2023/09/22 05:28:08;;;;;;;2.77;1.40;;;;;;;14.87;92.74;99272.22;5048768;28;20587;-81
2023/09/22 05:30:35;;;;;;;2.10;1.17;;;;;;;14.84;93.12;99289.50;5046948;28;20219;-81
2023/09/22 05:33:04;;;;;;;1.47;1.20;;;;;;;14.83;93.43;99290.50;5050079;28;20239;-81
2023/09/22 05:35:33;;;;;;;2.07;1.20;;;;;;;14.86;92.94;99294.69;5045120;28;20240;-80
2023/09/22 05:38:01;;;;;;;1.67;1.17;;;;;;;14.88;92.83;99287.31;5050054;28;20588;-81
2023/09/22 05:40:29;;;;;;;2.27;0.90;;;;;;;14.90;92.74;99304.09;5049292;28;20241;-81
2023/09/22 05:42:55;;;;;;;1.57;1.20;;;;;;;14.88;92.58;99316.78;5047224;28;20248;-81
2023/09/22 05:45:23;;;;;;;1.80;1.10;;;;;;;14.83;93.00;99332.53;5051950;28;20587;-81
2023/09/22 05:47:49;;;;;;;1.47;1.03;;;;;;;14.84;93.20;99345.78;5049176;28;20202;-81
2023/09/22 05:50:16;;;;;;;1.00;0.90;;;;;;;14.84;93.22;99335.06;5048751;28;20222;-81
2023/09/22 05:52:43;;;;;;;2.40;1.00;;;;;;;14.84;93.36;99342.25;5049541;28;20214;-81
2023/09/22 05:55:10;;;;;;;1.13;0.87;;;;;;;14.85;94.05;99346.63;5047235;28;20577;-81
2023/09/22 05:57:38;;;;;;;4.00;1.10;;;;;;;14.86;93.82;99348.31;5047242;28;20297;-81
2023/09/22 06:00:15;;;;;;;1.20;0.90;;;;;;;14.91;94.20;99368.28;5044807;28;20720;-81
2023/09/22 06:02:45;;;;;;;1.67;0.97;;;;;;;14.91;94.20;99387.03;5055359;28;20237;-81
2023/09/22 06:05:12;;;;;;;2.27;1.00;;;;;;;14.98;93.74;99381.91;5051638;28;20203;-81
2023/09/22 06:07:38;;;;;;;0.93;0.80;;;;;;;15.01;93.80;99397.69;5046733;28;20201;-81
2023/09/22 06:10:06;;;;;;;3.47;1.60;;;;;;;15.02;93.42;99391.31;5049442;28;20250;-81
2023/09/22 06:12:32;;;;;;;3.03;1.20;;;;;;;15.02;92.66;99399.38;5045328;28;20217;-81
2023/09/22 06:15:00;;;;;;;1.40;1.07;;;;;;;15.01;92.62;99391.47;5044615;28;20211;-81
2023/09/22 06:17:27;;;;;;;1.97;1.00;;;;;;;15.06;92.07;99395.34;5038215;28;20217;-81
2023/09/22 06:19:53;;;;;;;1.37;0.80;;;;;;;15.09;92.23;99381.63;5046875;28;20230;-81
2023/09/22 06:22:20;;;;;;;1.70;1.00;;;;;;;15.09;91.72;99373.59;5046853;28;20238;-81
2023/09/22 06:24:47;;;;;;;1.67;1.07;;;;;;;15.14;91.53;99375.81;5041290;28;20768;-80
2023/09/22 06:27:13;;;;;;;2.70;1.20;;;;;;;15.12;91.30;99369.75;5039773;28;20571;-79
2023/09/22 06:29:40;;;;;;;1.70;1.27;;;;;;;15.11;91.05;99362.72;5053850;28;20825;-80
2023/09/22 06:32:07;;;;;;;1.20;1.10;;;;;;;15.10;90.61;99369.91;5046280;28;20579;-80
2023/09/22 06:34:34;;;;;;;1.93;1.20;;;;;;;15.13;89.67;99368.75;5045509;28;20205;-80
2023/09/22 06:37:01;;;;;;;1.37;1.20;;;;;;;15.14;89.66;99381.19;5050021;28;20209;-79
2023/09/22 06:39:27;;;;;;;2.40;1.60;;;;;;;15.17;88.38;99380.88;5045024;28;20228;-79
2023/09/22 06:41:54;;;;;;;2.30;1.57;;;;;;;15.12;87.88;99367.91;5038951;28;20222;-80
2023/09/22 06:44:20;;;;;;;3.37;1.40;;;;;;;15.15;87.61;99370.28;5046391;28;20241;-80
2023/09/22 06:46:47;;;;;;;3.47;1.50;;;;;;;15.18;87.35;99385.22;5044317;28;20208;-79
2023/09/22 06:49:15;;;;;;;1.90;1.40;;;;;;;15.22;87.03;99387.44;5046820;28;20222;-79
2023/09/22 06:51:42;;;;;;;4.83;1.80;;;;;;;15.26;87.07;99396.84;5049537;28;20204;-80
2023/09/22 06:54:09;;;;;;;4.43;1.70;;;;;;;15.29;87.05;99401.91;5046021;28;20783;-80
2023/09/22 06:56:36;;;;;;;2.97;1.53;;;;;;;15.37;87.24;99408.34;5048975;28;20202;-80
2023/09/22 06:59:06;;;;;;;6.60;1.80;;;;;;;15.39;87.61;99401.81;5041413;28;20211;-79
2023/09/22 07:01:33;;;;;;;3.10;1.60;;;;;;;15.45;87.20;99393.09;5045666;28;20222;-79
2023/09/22 07:03:59;;;;;;;4.03;1.53;;;;;;;15.50;87.38;99389.97;5051072;28;20711;-80
2023/09/22 07:06:27;;;;;;;2.77;1.40;;;;;;;15.52;87.69;99386.13;5049134;28;20709;-80
2023/09/22 07:08:54;;;;;;;2.67;1.40;;;;;;;15.53;86.83;99389.66;5046982;28;20593;-80
2023/09/22 07:11:21;;;;;;;2.73;1.50;;;;;;;15.55;86.78;99401.06;5050426;28;20683;-80
2023/09/22 07:13:48;;;;;;;2.47;1.40;;;;;;;15.58;86.93;99409.69;5039961;28;20199;-80
2023/09/22 07:16:15;;;;;;;3.00;1.60;;;;;;;15.60;86.79;99414.84;5040349;28;20709;-80
2023/09/22 07:18:41;;;;;;;2.90;1.63;;;;;;;15.63;86.75;99436.00;5042702;28;20218;-80
2023/09/22 07:21:09;;;;;;;3.17;1.40;;;;;;;15.70;84.87;99446.97;5046699;28;20225;-80
2023/09/22 07:23:37;;;;;;;2.23;1.37;;;;;;;15.72;85.06;99451.19;5049703;28;20278;-80
2023/09/22 07:26:06;;;;;;;2.73;1.40;;;;;;;15.78;84.37;99444.31;5046427;28;20214;-80
2023/09/22 07:28:34;;;;;;;2.43;1.60;;;;;;;15.78;83.54;99437.09;5041966;28;20217;-81
2023/09/22 07:31:00;;;;;;;7.43;1.60;;;;;;;15.81;83.08;99433.25;5049202;28;20253;-81
2023/09/22 07:33:30;;;;;;;3.07;1.50;;;;;;;15.86;81.82;99434.47;5050825;28;20218;-81
2023/09/22 07:35:58;;;;;;;2.10;1.37;;;;;;;15.86;81.79;99418.38;5043932;28;20253;-81
2023/09/22 07:38:25;;;;;;;2.70;1.60;;;;;;;15.86;81.86;99413.00;5046521;28;20211;-81
2023/09/22 07:40:52;;;;;;;2.70;1.60;;;;;;;15.90;81.54;99418.88;5045846;28;20617;-81
2023/09/22 07:43:19;;;;;;;1.93;1.50;;;;;;;15.89;80.03;99403.78;5046467;28;20214;-81
2023/09/22 07:45:46;;;;;;;1.83;1.53;;;;;;;15.93;80.63;99400.63;5047163;28;20209;-81
2023/09/22 07:48:12;;;;;;;3.10;1.40;;;;;;;15.96;81.04;99404.78;5048208;28;20201;-81
2023/09/22 07:50:41;;;;;;;2.33;1.57;;;;;;;16.06;81.70;99415.44;5052159;28;20246;-81
2023/09/22 07:53:08;;;;;;;2.60;1.20;;;;;;;16.10;80.62;99419.47;5038541;28;20211;-81
2023/09/22 07:55:34;;;;;;;1.37;1.20;;;;;;;16.13;80.55;99429.88;5045734;28;20208;-81
2023/09/22 07:58:03;;;;;;;2.40;1.33;;;;;;;16.15;80.37;99430.56;5054247;28;20210;-81
2023/09/22 08:00:29;;;;;;;3.20;1.40;;;;;;;16.18;80.47;99452.56;5047248;28;20225;-81
2023/09/22 08:02:56;;;;;;;2.07;1.30;;;;;;;16.20;80.79;99453.25;5051492;28;20213;-81
2023/09/22 08:05:24;;;;;;;1.10;1.00;;;;;;;16.21;80.85;99459.47;5055018;28;20208;-81
2023/09/22 08:07:50;;;;;;;1.37;1.13;;;;;;;16.20;80.67;99466.69;5052445;28;20204;-81
2023/09/22 08:10:18;;;;;;;1.33;1.10;;;;;;;16.21;80.60;99467.53;5051160;28;20219;-81
2023/09/22 08:12:45;;;;;;;1.57;0.97;;;;;;;16.21;81.00;99472.91;5047369;28;20243;-81
2023/09/22 08:15:14;;;;;;;1.57;0.80;;;;;;;16.25;81.28;99463.53;5041163;28;20219;-81
2023/09/22 08:17:41;;;;;;;1.23;0.77;;;;;;;16.21;80.41;99470.22;5046927;28;20246;-81
2023/09/22 08:20:11;;;;;;;1.20;0.70;;;;;;;16.21;80.33;99487.16;5050718;28;20258;-81
2023/09/22 08:22:38;;;;;;;1.63;0.80;;;;;;;16.20;80.70;99496.22;5041682;28;20586;-81
2023/09/22 08:25:08;;;;;;;1.27;0.70;;;;;;;16.22;80.96;99506.81;5046137;28;20207;-81
2023/09/22 08:27:35;;;;;;;0.80;0.63;;;;;;;16.23;81.18;99490.53;5051708;28;20215;-81
2023/09/22 08:30:09;;;;;;;1.63;0.70;;;;;;;16.26;81.22;99492.06;5048342;28;20244;-81
2023/09/22 08:32:37;;;;;;;0.90;0.60;;;;;;;16.25;80.02;99501.13;5046786;28;20571;-81
2023/09/22 08:35:04;;;;;;;1.97;0.90;;;;;;;16.28;81.19;99507.03;5048564;28;20605;-81
2023/09/22 08:37:32;;;;;;;2.00;0.80;;;;;;;16.31;81.07;99504.00;5042525;28;20212;-81
2023/09/22 08:40:00;;;;;;;1.03;0.53;;;;;;;16.31;81.32;99495.94;5036610;28;20232;-81
2023/09/22 08:42:27;;;;;;;1.03;0.60;;;;;;;16.30;80.26;99483.50;5061348;28;20315;-80
2023/09/22 08:44:55;;;;;;;0.80;0.60;;;;;;;16.28;80.21;99480.16;5063671;28;20194;-80
2023/09/22 08:47:24;;;;;;;1.27;0.60;;;;;;;16.30;80.66;99488.06;5061513;28;20203;-82
2023/09/22 08:49:52;;;;;;;2.90;0.63;;;;;;;16.35;80.86;99490.25;5060635;28;20238;-81
2023/09/22 08:52:20;;;;;;;1.37;0.70;;;;;;;16.39;80.71;99508.56;5058900;28;20207;-81
2023/09/22 08:54:47;;;;;;;2.37;0.60;;;;;;;16.42;79.82;99508.25;5057730;28;20227;-81
2023/09/22 08:57:15;;;;;;;1.53;0.70;;;;;;;16.46;78.67;99506.09;5056991;28;20215;-80
2023/09/22 08:59:43;;;;;;;1.27;0.60;;;;;;;16.45;77.98;99499.88;5046173;28;20225;-81
2023/09/22 09:02:10;;;;;;;1.13;0.63;;;;;;;16.47;78.77;99500.56;5054648;28;20231;-81
2023/09/22 09:04:39;;;;;;;0.97;0.80;;;;;;;16.50;78.92;99492.13;5056580;28;20206;-81
2023/09/22 09:07:07;;;;;;;1.00;0.50;;;;;;;16.53;78.02;99494.50;5057202;28;20269;-80
2023/09/22 09:09:44;;;;;;;2.30;0.77;;;;;;;16.61;76.76;99508.00;5048502;28;20233;-80
2023/09/22 09:12:11;;;;;;;2.07;0.70;;;;;;;16.69;76.38;99515.25;5036256;28;20231;-80
2023/09/22 09:14:39;;;;;;;1.93;0.67;;;;;;;16.73;74.86;99511.22;5055072;28;20211;-80
2023/09/22 09:17:18;;;;;;;1.77;0.60;;;;;;;16.79;75.62;99515.13;5057210;28;20773;-80
2023/09/22 09:19:47;;;;;;;2.43;0.63;;;;;;;16.84;75.92;99521.66;5057358;28;20266;-80
2023/09/22 09:22:15;;;;;;;2.23;0.60;;;;;;;16.90;75.43;99518.34;5038867;28;20341;-82
2023/09/22 09:24:43;;;;;;;4.33;0.87;;;;;;;16.95;74.77;99515.16;5061732;28;20212;-81
2023/09/22 09:27:18;;;;;;;4.00;0.80;;;;;;;16.97;73.88;99515.84;5061865;28;20209;-81
2023/09/22 09:29:46;;;;;;;1.73;0.57;;;;;;;16.94;73.87;99498.19;5067709;28;20225;-80
2023/09/22 09:32:23;;;;;;;0.90;0.50;;;;;;;16.94;73.41;99505.41;5061340;28;20312;-80
2023/09/22 09:34:50;;;;;;;1.17;0.60;;;;;;;16.93;73.46;99491.13;5047497;28;20270;-80
2023/09/22 09:37:19;;;;;;;1.60;0.70;;;;;;;16.95;73.02;99489.09;5057084;28;20675;-80
2023/09/22 09:39:47;;;;;;;0.90;0.57;;;;;;;16.94;73.23;99486.56;5056475;28;20226;-80
2023/09/22 09:42:17;;;;;;;1.23;0.60;;;;;;;16.99;74.00;99485.09;5057186;28;20295;-81
2023/09/22 09:44:49;;;;;;;2.03;0.40;;;;;;;17.10;74.60;99491.13;5051261;28;20301;-81
2023/09/22 09:47:23;;;;;;;1.10;0.63;;;;;;;17.22;75.03;99487.94;5057423;28;20257;-81
2023/09/22 09:49:52;;;;;;;1.17;0.57;;;;;;;17.32;72.78;99490.47;5055943;28;20281;-80
2023/09/22 09:52:25;;;;;;;1.50;0.63;;;;;;;17.45;73.19;99495.34;5036769;28;20229;-80
2023/09/22 09:55:03;;;;;;;2.30;0.60;;;;;;;17.58;72.20;99501.88;5053029;28;20213;-81
2023/09/22 09:57:31;;;;;;;2.10;0.97;;;;;;;17.75;71.07;99497.34;5049891;28;20198;-81
2023/09/22 09:59:58;;;;;;;1.63;0.60;;;;;;;17.85;69.61;99494.47;5039101;28;20239;-82
2023/09/22 10:02:27;;;;;;;2.17;0.57;;;;;;;17.99;70.00;99493.78;5055692;28;20238;-81
2023/09/22 10:04:55;;;;;;;1.63;0.57;;;;;;;18.10;68.81;99474.53;5064200;28;20220;-80
2023/09/22 10:07:24;;;;;;;1.50;0.50;;;;;;;18.18;67.82;99481.75;5052038;28;20660;-79
2023/09/22 10:09:50;;;;;;;3.43;1.20;;;;;;;18.26;68.35;99504.13;5058567;28;20692;-80
2023/09/22 10:12:17;;;;;;;2.40;0.93;;;;;;;18.40;68.85;99502.56;5045786;28;20232;-81
2023/09/22 10:14:46;;;;;;;2.63;0.70;;;;;;;18.54;68.53;99496.41;5054448;28;20219;-80
2023/09/22 10:17:21;;;;;;;1.90;0.70;;;;;;;18.64;67.13;99493.53;5057467;28;20214;-80
2023/09/22 10:19:48;;;;;;;1.47;0.60;;;;;;;18.70;66.31;99488.28;5048160;28;20227;-80
2023/09/22 10:22:14;;;;;;;1.27;0.50;;;;;;;18.73;64.59;99504.09;5057415;28;20318;-80
2023/09/22 10:24:42;;;;;;;1.63;0.70;;;;;;;18.75;64.92;99508.50;5051049;28;20231;-80
2023/09/22 10:27:14;;;;;;;2.83;0.53;;;;;;;18.77;64.12;99509.16;5050853;28;20588;-79
2023/09/22 10:29:51;;;;;;;2.50;0.50;;;;;;;18.79;63.91;99528.69;5060076;28;20779;-79
2023/09/22 10:32:27;;;;;;;1.90;0.60;;;;;;;18.82;64.35;99520.22;5060240;28;20214;-79
2023/09/22 10:34:56;;;;;;;1.87;0.60;;;;;;;18.88;63.89;99506.03;5064618;28;20598;-80
2023/09/22 10:37:24;;;;;;;0.80;0.50;;;;;;;18.91;63.82;99503.00;5062517;28;20208;-79
2023/09/22 10:39:57;;;;;;;1.73;0.40;;;;;;;18.93;63.26;99506.34;5059063;28;20674;-79
2023/09/22 10:42:24;;;;;;;2.97;0.57;;;;;;;18.96;63.44;99500.59;5046093;28;20576;-80
2023/09/22 10:45:02;;;;;;;0.60;0.50;;;;;;;18.99;63.84;99494.81;5059714;28;20453;-80
2023/09/22 10:47:39;;;;;;;1.10;0.53;;;;;;;19.02;63.96;99495.31;5052865;28;20295;-80
2023/09/22 10:50:13;;;;;;;0.53;0.40;;;;;;;19.11;64.20;99496.09;5059756;28;20225;-80
2023/09/22 10:52:41;;;;;;;1.60;0.50;;;;;;;19.18;64.66;99499.75;5059876;28;20243;-81
2023/09/22 10:55:12;;;;;;;1.10;0.40;;;;;;;19.25;63.82;99503.41;5059311;28;20202;-80
2023/09/22 10:57:39;;;;;;;1.73;0.70;;;;;;;19.29;61.61;99514.69;5052267;28;20810;-80
2023/09/22 11:00:13;;;;;;;1.83;0.60;;;;;;;19.34;61.69;99506.91;5059713;28;20228;-80
2023/09/22 11:02:39;;;;;;;1.47;0.53;;;;;;;19.31;60.44;99504.56;5054300;28;20244;-79
2023/09/22 11:05:06;;;;;;;0.43;0.40;;;;;;;19.22;60.28;99506.47;5059842;28;20217;-79
2023/09/22 11:07:33;;;;;;;0.83;0.47;;;;;;;19.16;60.43;99509.91;5059778;28;20218;-79
2023/09/22 11:10:00;;;;;;;0.43;0.30;;;;;;;19.14;60.40;99511.94;5041268;28;20255;-79
2023/09/22 11:12:28;;;;;;;1.07;0.50;;;;;;;19.13;61.13;99512.97;5053879;28;20230;-78
2023/09/22 11:14:54;;;;;;;1.77;0.67;;;;;;;19.15;61.08;99524.44;5051929;28;20227;-78
2023/09/22 11:17:21;;;;;;;1.70;0.60;;;;;;;19.24;60.81;99526.03;5040841;28;20209;-79
2023/09/22 11:19:51;;;;;;;2.30;0.50;;;;;;;19.31;60.49;99528.88;5040142;28;20233;-79
2023/09/22 11:22:18;;;;;;;0.97;0.50;;;;;;;19.36;59.42;99524.59;5043755;28;20228;-79
2023/09/22 11:24:45;;;;;;;0.40;0.30;;;;;;;19.45;58.80;99541.56;5052581;28;20206;-79
2023/09/22 11:27:12;;;;;;;0.90;0.47;;;;;;;19.49;58.39;99534.78;5056645;28;20227;-79
2023/09/22 11:29:41;;;;;;;2.67;0.60;;;;;;;19.56;58.99;99543.03;5064145;28;20226;-79
2023/09/22 11:32:08;;;;;;;0.70;0.30;;;;;;;19.67;58.75;99537.22;5064207;28;20214;-78
2023/09/22 11:34:45;;;;;;;4.30;0.80;;;;;;;19.74;58.10;99541.69;5063972;28;20261;-79
2023/09/22 11:37:12;;;;;;;0.87;0.50;;;;;;;19.82;57.45;99537.25;5064131;28;20195;-80